Time;durP1;ratioP1;P1;durP2;ratioP2;P2;SDS_P1;SDS_P2;PMS_P1;PMS_P2;Temp;Humidity;BMP_temperature;BMP_pressure;BME280_temperature;BME280_humidity;BME280_pressure;Samples;Min_cycle;Max_cycle;Signal;HPM_P1;HPM_P2
2023/08/05 00:00:17;;;;;;;0.70;0.70;;;13.40;99.90;;;;;;4969642;28;20375;-90
2023/08/05 00:02:43;;;;;;;0.60;0.60;;;13.30;99.90;;;;;;4969379;28;20059;-89
2023/08/05 00:05:09;;;;;;;0.63;0.63;;;13.30;99.90;;;;;;4965054;28;20464;-89
2023/08/05 00:07:35;;;;;;;0.60;0.60;;;13.40;99.90;;;;;;4969824;28;20058;-90
2023/08/05 00:10:00;;;;;;;0.65;0.65;;;13.60;99.90;;;;;;4963831;28;20290;-90
2023/08/05 00:12:26;;;;;;;0.63;0.63;;;13.60;99.90;;;;;;4977118;28;20038;-91
2023/08/05 00:14:52;;;;;;;0.60;0.60;;;13.60;99.90;;;;;;4962821;28;20137;-91
2023/08/05 00:17:18;;;;;;;0.65;0.65;;;13.70;99.90;;;;;;4965344;28;20070;-90
2023/08/05 00:19:44;;;;;;;0.60;0.60;;;13.50;99.90;;;;;;4964814;28;20145;-90
2023/08/05 00:22:10;;;;;;;0.57;0.57;;;13.70;99.90;;;;;;4964984;28;20073;-90
2023/08/05 00:24:36;;;;;;;0.60;0.60;;;13.60;99.90;;;;;;4967093;28;20046;-91
2023/08/05 00:27:02;;;;;;;0.60;0.60;;;13.60;99.90;;;;;;4968504;28;20054;-89
2023/08/05 00:29:30;;;;;;;0.60;0.60;;;13.50;99.90;;;;;;4989331;28;20065;-91
2023/08/05 00:31:56;;;;;;;0.60;0.60;;;13.40;99.90;;;;;;4980620;28;20054;-90
2023/08/05 00:34:22;;;;;;;0.60;0.60;;;13.30;99.90;;;;;;4967281;28;20053;-91
2023/08/05 00:36:47;;;;;;;0.57;0.57;;;13.40;99.90;;;;;;4967633;28;20051;-89
2023/08/05 00:39:14;;;;;;;0.60;0.60;;;13.40;99.90;;;;;;4965598;28;20050;-90
2023/08/05 00:41:40;;;;;;;0.60;0.60;;;13.30;99.90;;;;;;4962244;28;20051;-90
2023/08/05 00:44:05;;;;;;;0.60;0.60;;;13.40;99.90;;;;;;4965250;28;20046;-90
2023/08/05 00:46:32;;;;;;;0.60;0.60;;;13.20;99.90;;;;;;4968777;28;20089;-90
2023/08/05 00:48:57;;;;;;;0.60;0.60;;;13.20;99.90;;;;;;4962212;28;20050;-90
2023/08/05 00:51:23;;;;;;;0.60;0.60;;;13.10;99.90;;;;;;4967386;28;20072;-89
2023/08/05 00:53:50;;;;;;;0.60;0.60;;;13.20;99.90;;;;;;4964667;28;20426;-91
2023/08/05 00:56:16;;;;;;;0.60;0.60;;;13.30;99.90;;;;;;4985876;28;20089;-91
2023/08/05 00:58:45;;;;;;;0.60;0.60;;;13.30;99.90;;;;;;4966854;28;20050;-91
2023/08/05 01:01:11;;;;;;;0.60;0.60;;;13.10;99.90;;;;;;4971495;28;20086;-90
2023/08/05 01:03:38;;;;;;;0.60;0.60;;;13.00;99.90;;;;;;4968641;28;20108;-91
2023/08/05 01:06:05;;;;;;;0.60;0.60;;;13.10;99.90;;;;;;4968468;28;20042;-91
2023/08/05 01:08:52;;;;;;;0.60;0.60;;;13.00;99.90;;;;;;4970858;28;20034;-92
2023/08/05 01:11:33;;;;;;;0.60;0.60;;;13.00;99.90;;;;;;4968582;28;20116;-92
2023/08/05 01:13:59;;;;;;;0.60;0.60;;;12.90;99.90;;;;;;4968614;28;20077;-91
2023/08/05 01:16:25;;;;;;;0.60;0.60;;;12.80;99.90;;;;;;4965784;28;20136;-90
2023/08/05 01:18:53;;;;;;;0.70;0.70;;;12.80;99.90;;;;;;4964276;28;20073;-90
2023/08/05 01:21:30;;;;;;;0.60;0.60;;;12.80;99.90;;;;;;4966995;28;20042;-91
2023/08/05 01:24:15;;;;;;;0.60;0.60;;;12.60;99.90;;;;;;4972447;28;20042;-92
2023/08/05 01:26:41;;;;;;;0.70;0.70;;;12.60;99.90;;;;;;4967337;28;20103;-91
2023/08/05 01:29:08;;;;;;;0.70;0.70;;;12.60;99.90;;;;;;4966572;28;20104;-91
2023/08/05 01:31:35;;;;;;;0.60;0.60;;;12.60;99.90;;;;;;4975388;28;20176;-91
2023/08/05 01:34:02;;;;;;;0.60;0.60;;;12.70;99.90;;;;;;4966054;28;20042;-92
2023/08/05 01:36:31;;;;;;;0.60;0.60;;;12.80;99.90;;;;;;4965389;28;20049;-90
2023/08/05 01:38:57;;;;;;;0.60;0.60;;;12.70;99.90;;;;;;4966446;28;20089;-91
2023/08/05 01:41:27;;;;;;;0.70;0.70;;;12.90;99.90;;;;;;4964107;28;20472;-91
2023/08/05 01:43:52;;;;;;;0.60;0.60;;;12.90;99.90;;;;;;4968940;28;20121;-91
2023/08/05 01:46:18;;;;;;;0.60;0.60;;;12.80;99.90;;;;;;4968236;28;20129;-91
2023/08/05 01:48:46;;;;;;;0.60;0.60;;;12.80;99.90;;;;;;4967551;28;20045;-91
2023/08/05 01:51:12;;;;;;;0.60;0.60;;;12.70;99.90;;;;;;4966834;28;20172;-91
2023/08/05 01:53:44;;;;;;;0.60;0.60;;;12.80;99.90;;;;;;4964865;28;20125;-92
2023/08/05 01:56:10;;;;;;;0.60;0.60;;;12.60;99.90;;;;;;4956593;28;20054;-92
2023/08/05 01:58:36;;;;;;;0.60;0.60;;;12.60;99.90;;;;;;4965553;28;20089;-90
2023/08/05 02:01:02;;;;;;;0.60;0.60;;;12.60;99.90;;;;;;4966298;28;20057;-91
2023/08/05 02:03:27;;;;;;;0.60;0.60;;;12.50;99.90;;;;;;4968278;28;20494;-91
2023/08/05 02:05:53;;;;;;;0.60;0.60;;;12.60;99.90;;;;;;4965634;28;20094;-91
2023/08/05 02:08:22;;;;;;;0.60;0.60;;;12.50;99.90;;;;;;4963615;28;20050;-91
2023/08/05 02:10:50;;;;;;;0.60;0.60;;;12.60;99.90;;;;;;4967942;28;20046;-92
2023/08/05 02:13:19;;;;;;;0.55;0.55;;;12.70;99.90;;;;;;4983510;28;20112;-91
2023/08/05 02:15:45;;;;;;;0.60;0.60;;;12.60;99.90;;;;;;4968541;28;20152;-91
2023/08/05 02:18:11;;;;;;;0.60;0.60;;;12.60;99.90;;;;;;4965510;28;20649;-90
2023/08/05 02:20:39;;;;;;;0.60;0.60;;;12.50;99.90;;;;;;4969660;28;20099;-92
2023/08/05 02:23:05;;;;;;;0.60;0.60;;;12.40;99.90;;;;;;4967891;28;20062;-92
2023/08/05 02:25:31;;;;;;;0.60;0.60;;;12.20;99.90;;;;;;4966187;28;20054;-91
2023/08/05 02:27:56;;;;;;;0.60;0.60;;;12.40;99.90;;;;;;4979054;28;20081;-92
2023/08/05 02:30:22;;;;;;;0.60;0.60;;;12.40;99.90;;;;;;4960501;28;20140;-90
2023/08/05 02:32:56;;;;;;;0.70;0.70;;;12.50;99.90;;;;;;4965548;28;20101;-93
2023/08/05 02:35:22;;;;;;;0.60;0.60;;;12.60;99.90;;;;;;4967238;28;20488;-92
2023/08/05 02:37:56;;;;;;;0.60;0.60;;;12.60;99.90;;;;;;4965985;28;20053;-92
2023/08/05 02:40:22;;;;;;;0.60;0.60;;;12.60;99.90;;;;;;4965997;28;20109;-91
2023/08/05 02:42:51;;;;;;;0.60;0.60;;;12.80;99.90;;;;;;4965519;28;20077;-91
2023/08/05 02:45:16;;;;;;;0.60;0.60;;;12.60;99.90;;;;;;4959574;28;20491;-91
2023/08/05 02:47:45;;;;;;;0.60;0.60;;;12.80;99.90;;;;;;4963654;28;20101;-92
2023/08/05 02:50:11;;;;;;;0.60;0.60;;;12.80;99.90;;;;;;4967411;28;20046;-89
2023/08/05 02:52:46;;;;;;;0.60;0.60;;;12.80;99.90;;;;;;4964963;28;20149;-92
2023/08/05 02:55:30;;;;;;;0.60;0.60;;;13.00;99.90;;;;;;4966267;28;20062;-92
2023/08/05 02:57:55;;;;;;;0.70;0.70;;;12.90;99.90;;;;;;4985660;28;20065;-91
2023/08/05 03:00:21;;;;;;;0.60;0.60;;;12.70;99.90;;;;;;4968104;28;20488;-92
2023/08/05 03:02:53;;;;;;;0.60;0.60;;;12.90;99.90;;;;;;4964205;28;20054;-92
2023/08/05 03:05:18;;;;;;;0.60;0.60;;;12.70;99.90;;;;;;4961283;28;20038;-91
2023/08/05 03:07:44;;;;;;;0.60;0.60;;;12.60;99.90;;;;;;4962497;28;20081;-91
2023/08/05 03:10:13;;;;;;;0.60;0.60;;;12.70;99.90;;;;;;4964544;28;20092;-90
2023/08/05 03:12:39;;;;;;;0.60;0.60;;;12.70;99.90;;;;;;4961213;28;20070;-91
2023/08/05 03:15:05;;;;;;;0.60;0.60;;;12.90;99.90;;;;;;4967479;28;20144;-91
2023/08/05 03:17:36;;;;;;;0.50;0.50;;;13.00;99.90;;;;;;4974270;28;20763;-91
2023/08/05 03:20:11;;;;;;;0.60;0.60;;;13.00;99.90;;;;;;4961309;28;20125;-92
2023/08/05 03:22:37;;;;;;;0.60;0.60;;;13.00;99.90;;;;;;4967498;28;20038;-91
2023/08/05 03:25:03;;;;;;;0.60;0.60;;;12.90;99.90;;;;;;4963147;28;20093;-91
2023/08/05 03:27:32;;;;;;;0.60;0.60;;;12.80;99.90;;;;;;4965503;28;20721;-92
2023/08/05 03:29:58;;;;;;;0.60;0.60;;;13.10;99.90;;;;;;4966286;28;20053;-90
2023/08/05 03:32:23;;;;;;;0.60;0.60;;;12.90;99.90;;;;;;4966347;28;20042;-91
2023/08/05 03:34:49;;;;;;;0.60;0.60;;;13.20;99.90;;;;;;4967058;28;20061;-90
2023/08/05 03:37:15;;;;;;;0.60;0.60;;;13.00;99.90;;;;;;4965173;28;20630;-90
2023/08/05 03:39:41;;;;;;;0.60;0.60;;;13.10;99.90;;;;;;4962965;28;20053;-89
2023/08/05 03:42:06;;;;;;;0.60;0.60;;;13.20;99.90;;;;;;4962393;28;20061;-90
2023/08/05 03:44:32;;;;;;;0.60;0.60;;;13.30;99.90;;;;;;4979100;28;20051;-89
2023/08/05 03:47:00;;;;;;;0.50;0.50;;;13.10;99.90;;;;;;4963786;28;20055;-90
2023/08/05 03:49:26;;;;;;;0.60;0.60;;;13.20;99.90;;;;;;4967915;28;20109;-89
2023/08/05 03:51:52;;;;;;;0.50;0.50;;;13.30;99.90;;;;;;4963472;28;20156;-90
2023/08/05 03:54:18;;;;;;;0.60;0.60;;;13.40;99.90;;;;;;4963995;28;20464;-90
2023/08/05 03:56:43;;;;;;;0.60;0.60;;;13.20;99.90;;;;;;4962589;28;20484;-90
2023/08/05 03:59:09;;;;;;;0.50;0.50;;;13.40;99.90;;;;;;4958947;28;20122;-89
2023/08/05 04:01:35;;;;;;;0.60;0.60;;;13.40;99.90;;;;;;4964057;28;20480;-90
2023/08/05 04:04:01;;;;;;;0.50;0.50;;;13.40;99.90;;;;;;4963094;28;20042;-90
2023/08/05 04:06:28;;;;;;;0.60;0.60;;;13.40;99.90;;;;;;4966492;28;20096;-89
2023/08/05 04:08:54;;;;;;;0.60;0.60;;;13.10;99.90;;;;;;4966676;28;20615;-91
2023/08/05 04:11:23;;;;;;;0.55;0.55;;;13.20;99.90;;;;;;4964941;28;20054;-91
2023/08/05 04:13:51;;;;;;;0.60;0.60;;;13.50;99.90;;;;;;4973762;28;20046;-91
2023/08/05 04:16:19;;;;;;;0.60;0.60;;;13.20;99.90;;;;;;4964283;28;20042;-91
2023/08/05 04:18:48;;;;;;;0.60;0.60;;;13.20;99.90;;;;;;4967558;28;20046;-91
2023/08/05 04:21:15;;;;;;;0.52;0.52;;;13.20;99.90;;;;;;4967361;28;20047;-89
2023/08/05 04:23:42;;;;;;;0.60;0.60;;;13.10;99.90;;;;;;4963787;28;20122;-89
2023/08/05 04:26:08;;;;;;;0.60;0.60;;;13.40;99.90;;;;;;4967460;28;20125;-90
2023/08/05 04:28:33;;;;;;;0.50;0.50;;;13.30;99.90;;;;;;4967652;28;20124;-90
2023/08/05 04:30:59;;;;;;;0.60;0.60;;;13.10;99.90;;;;;;4965825;28;20381;-89
2023/08/05 04:33:25;;;;;;;0.50;0.50;;;13.10;99.90;;;;;;4967774;28;20042;-90
2023/08/05 04:35:51;;;;;;;0.60;0.60;;;13.30;99.90;;;;;;4966483;28;20042;-91
2023/08/05 04:38:17;;;;;;;0.60;0.60;;;13.30;99.90;;;;;;4964806;28;20058;-90
2023/08/05 04:40:43;;;;;;;0.60;0.60;;;13.10;99.90;;;;;;4963496;28;20073;-89
2023/08/05 04:43:09;;;;;;;0.50;0.50;;;13.30;99.90;;;;;;4969477;28;20492;-90
2023/08/05 04:45:35;;;;;;;0.50;0.50;;;13.10;99.90;;;;;;4967191;28;20129;-89
2023/08/05 04:48:01;;;;;;;0.52;0.52;;;13.00;99.90;;;;;;4967054;28;20047;-91
2023/08/05 04:50:27;;;;;;;0.52;0.52;;;13.10;99.90;;;;;;4963766;28;20528;-89
2023/08/05 04:52:53;;;;;;;0.50;0.50;;;13.20;99.90;;;;;;4962608;28;20125;-90
2023/08/05 04:55:18;;;;;;;0.50;0.50;;;13.40;99.90;;;;;;4969671;28;20129;-90
2023/08/05 04:57:46;;;;;;;0.60;0.60;;;13.30;99.90;;;;;;4964146;28;20039;-88
2023/08/05 05:00:12;;;;;;;0.50;0.50;;;13.50;99.90;;;;;;4966609;28;20046;-91
2023/08/05 05:02:41;;;;;;;0.55;0.55;;;13.40;99.90;;;;;;4966753;28;20051;-90
2023/08/05 05:05:07;;;;;;;0.50;0.50;;;13.90;99.90;;;;;;4968885;28;20050;-90
2023/08/05 05:07:33;;;;;;;0.50;0.50;;;13.70;99.90;;;;;;4966851;28;20060;-90
2023/08/05 05:10:00;;;;;;;0.50;0.50;;;13.90;99.90;;;;;;4966274;28;20129;-91
2023/08/05 05:12:26;;;;;;;0.50;0.50;;;14.40;99.90;;;;;;4969201;28;20223;-90
2023/08/05 05:14:52;;;;;;;0.50;0.50;;;14.90;99.90;;;;;;4972739;28;20061;-90
2023/08/05 05:17:23;;;;;;;0.50;0.50;;;14.80;99.90;;;;;;4961856;28;20046;-91
2023/08/05 05:19:49;;;;;;;0.50;0.50;;;16.10;99.90;;;;;;4967411;28;20046;-91
2023/08/05 05:22:18;;;;;;;0.50;0.50;;;15.50;99.90;;;;;;4963790;28;20046;-88
2023/08/05 05:24:45;;;;;;;0.50;0.50;;;15.40;99.90;;;;;;4962202;28;20138;-89
2023/08/05 05:27:14;;;;;;;0.60;0.60;;;15.50;99.90;;;;;;4968463;28;20089;-90
2023/08/05 05:29:41;;;;;;;0.50;0.50;;;15.70;99.90;;;;;;4966915;28;20046;-91
2023/08/05 05:32:07;;;;;;;0.57;0.57;;;15.70;99.90;;;;;;4963942;28;20717;-90
2023/08/05 05:34:33;;;;;;;0.60;0.60;;;15.70;99.90;;;;;;4965662;28;20126;-90
2023/08/05 05:37:01;;;;;;;0.50;0.50;;;15.50;99.90;;;;;;4962360;28;20137;-91
2023/08/05 05:39:27;;;;;;;0.50;0.50;;;15.40;99.90;;;;;;4964928;28;20126;-91
2023/08/05 05:41:56;;;;;;;0.50;0.50;;;15.40;99.90;;;;;;4968174;28;20129;-88
2023/08/05 05:44:22;;;;;;;0.50;0.50;;;15.50;99.90;;;;;;4986659;28;20053;-91
2023/08/05 05:46:48;;;;;;;0.50;0.50;;;15.90;99.90;;;;;;4966154;28;20050;-90
2023/08/05 05:49:15;;;;;;;0.50;0.50;;;15.90;99.90;;;;;;4966954;28;20057;-89
2023/08/05 05:51:42;;;;;;;0.50;0.50;;;15.70;99.90;;;;;;4969578;28;20121;-90
2023/08/05 05:54:08;;;;;;;0.50;0.50;;;15.60;99.90;;;;;;4980680;28;20049;-91
2023/08/05 05:56:34;;;;;;;0.50;0.50;;;15.60;99.90;;;;;;4967334;28;20042;-90
2023/08/05 05:59:00;;;;;;;0.50;0.50;;;15.60;99.90;;;;;;4968524;28;20081;-90
2023/08/05 06:01:25;;;;;;;0.50;0.50;;;15.70;99.90;;;;;;4965657;28;20048;-88
2023/08/05 06:03:51;;;;;;;0.50;0.50;;;15.70;99.90;;;;;;4962446;28;20046;-89
2023/08/05 06:06:17;;;;;;;0.50;0.50;;;15.60;99.90;;;;;;4962369;28;20058;-91
2023/08/05 06:08:43;;;;;;;0.50;0.50;;;15.70;99.90;;;;;;4970600;28;20114;-91
2023/08/05 06:11:10;;;;;;;0.50;0.50;;;15.80;99.90;;;;;;4967385;28;20051;-91
2023/08/05 06:13:36;;;;;;;0.50;0.50;;;16.00;99.90;;;;;;4968260;28;20050;-94
2023/08/05 06:16:05;;;;;;;0.50;0.50;;;16.20;99.90;;;;;;4968682;28;20050;-95
2023/08/05 06:18:31;;;;;;;0.50;0.50;;;16.40;99.90;;;;;;4961329;28;20043;-89
2023/08/05 06:21:09;;;;;;;0.50;0.50;;;16.30;99.90;;;;;;4964211;28;20042;-93
2023/08/05 06:23:35;;;;;;;0.50;0.50;;;16.30;99.90;;;;;;4961613;28;20102;-91
2023/08/05 06:29:58;;;;;;;0.60;0.60;;;16.40;99.90;;;;;;4923754;28;20112;-90
2023/08/05 06:36:19;;;;;;;0.50;0.50;;;16.10;99.90;;;;;;4883217;29;20439;-95
2023/08/05 06:38:45;;;;;;;0.50;0.50;;;16.30;99.90;;;;;;4887934;29;20048;-88
2023/08/05 06:41:11;;;;;;;0.52;0.52;;;16.40;99.90;;;;;;4969788;28;20062;-92
2023/08/05 06:43:40;;;;;;;0.60;0.60;;;16.60;99.90;;;;;;4965764;28;20077;-95
2023/08/05 06:46:06;;;;;;;0.50;0.50;;;16.70;99.90;;;;;;4976729;28;20065;-92
2023/08/05 06:48:31;;;;;;;0.60;0.60;;;17.10;99.90;;;;;;4962860;28;20038;-91
2023/08/05 06:51:06;;;;;;;0.60;0.60;;;17.30;99.90;;;;;;4969135;28;20050;-92
2023/08/05 06:53:39;;;;;;;0.52;0.52;;;17.90;99.90;;;;;;4961137;28;20119;-93
2023/08/05 06:56:05;;;;;;;0.50;0.50;;;18.00;99.90;;;;;;4986546;28;20137;-90
2023/08/05 06:58:31;;;;;;;0.60;0.60;;;17.50;99.90;;;;;;4963490;28;20201;-92
2023/08/05 07:00:57;;;;;;;0.60;0.60;;;17.50;99.90;;;;;;4968289;28;20499;-90
2023/08/05 07:03:41;;;;;;;0.60;0.60;;;17.40;99.90;;;;;;4960952;28;20050;-94
2023/08/05 07:06:11;;;;;;;0.65;0.65;;;17.30;99.90;;;;;;4980231;28;20448;-91
2023/08/05 07:08:37;;;;;;;0.60;0.60;;;17.10;99.90;;;;;;4965610;28;20432;-91
2023/08/05 07:11:03;;;;;;;0.60;0.60;;;17.20;99.90;;;;;;4970105;28;20139;-90
2023/08/05 07:13:29;;;;;;;0.60;0.60;;;17.20;99.90;;;;;;4968692;28;20066;-89
2023/08/05 07:15:59;;;;;;;0.68;0.68;;;17.20;99.90;;;;;;4979963;28;20042;-92
2023/08/05 07:18:39;;;;;;;0.68;0.68;;;17.40;99.90;;;;;;4967900;28;20049;-92
2023/08/05 07:21:07;;;;;;;0.60;0.60;;;17.50;99.90;;;;;;4962673;28;20054;-93
2023/08/05 07:23:33;;;;;;;0.60;0.60;;;17.60;99.90;;;;;;4988510;28;20172;-93
2023/08/05 07:26:00;;;;;;;0.60;0.60;;;17.70;99.90;;;;;;4960086;28;20073;-90
2023/08/05 07:28:33;;;;;;;0.60;0.60;;;17.70;99.90;;;;;;4965800;28;20058;-92
2023/08/05 07:31:20;;;;;;;;;;;;;;;;;;;;;
2023/08/05 07:33:51;;;;;;;0.60;0.60;;;17.80;99.90;;;;;;4982332;28;20055;-91
2023/08/05 07:36:17;;;;;;;0.60;0.60;;;17.90;99.90;;;;;;4966054;28;20053;-90
2023/08/05 07:38:54;;;;;;;0.60;0.60;;;18.10;99.90;;;;;;4966115;28;20511;-94
2023/08/05 07:41:22;;;;;;;0.60;0.60;;;18.10;99.90;;;;;;4962912;28;20046;-90
2023/08/05 07:43:51;;;;;;;0.60;0.60;;;18.10;99.90;;;;;;4969215;28;20698;-92
2023/08/05 07:46:35;;;;;;;;;;;;;;;;;;;;;
2023/08/05 07:49:30;;;;;;;0.60;0.60;;;18.40;99.90;;;;;;4942037;28;20400;-88
2023/08/05 07:51:56;;;;;;;0.60;0.60;;;19.00;99.90;;;;;;4969397;28;20054;-91
2023/08/05 07:54:23;;;;;;;0.60;0.60;;;19.20;99.90;;;;;;4981900;28;20068;-89
2023/08/05 07:56:49;;;;;;;0.60;0.60;;;19.20;99.90;;;;;;4969168;28;20051;-90
2023/08/05 07:59:20;;;;;;;0.60;0.60;;;19.50;99.90;;;;;;4970626;28;20538;-92
2023/08/05 08:01:53;;;;;;;0.60;0.60;;;19.80;99.90;;;;;;4964255;28;20042;-93
2023/08/05 08:04:21;;;;;;;0.60;0.60;;;19.90;99.90;;;;;;4964828;28;20073;-91
2023/08/05 08:06:52;;;;;;;0.50;0.50;;;20.20;99.90;;;;;;4955962;28;20039;-94
2023/08/05 08:09:17;;;;;;;0.50;0.50;;;19.80;99.90;;;;;;4962336;28;20081;-90
2023/08/05 08:11:43;;;;;;;0.60;0.60;;;19.70;99.90;;;;;;4965645;28;20050;-90
2023/08/05 08:14:09;;;;;;;0.68;0.68;;;20.00;99.90;;;;;;4962963;28;20043;-90
2023/08/05 08:16:35;;;;;;;0.70;0.70;;;19.90;99.90;;;;;;4968181;28;20038;-91
2023/08/05 08:19:04;;;;;;;0.50;0.50;;;19.90;99.90;;;;;;4966381;28;20065;-88
2023/08/05 08:21:29;;;;;;;0.50;0.50;;;20.00;99.90;;;;;;4962389;28;20052;-88
2023/08/05 08:23:55;;;;;;;0.50;0.50;;;20.10;99.90;;;;;;4968566;28;20035;-91
2023/08/05 08:26:21;;;;;;;0.60;0.60;;;20.90;99.90;;;;;;4967160;28;20109;-90
2023/08/05 08:28:49;;;;;;;0.60;0.60;;;21.00;99.90;;;;;;4970673;28;20124;-90
2023/08/05 08:31:15;;;;;;;0.50;0.50;;;20.60;99.90;;;;;;4964262;28;20049;-89
2023/08/05 08:33:44;;;;;;;0.60;0.60;;;20.40;99.90;;;;;;4971104;28;20046;-91
2023/08/05 08:36:10;;;;;;;0.50;0.50;;;20.30;99.90;;;;;;4962646;28;20043;-89
2023/08/05 08:38:38;;;;;;;0.50;0.50;;;20.10;99.90;;;;;;4983016;28;20062;-91
2023/08/05 08:41:04;;;;;;;0.50;0.50;;;19.70;99.90;;;;;;4969770;28;20057;-89
2023/08/05 08:43:30;;;;;;;0.50;0.50;;;19.70;99.90;;;;;;4966890;28;20046;-87
2023/08/05 08:45:58;;;;;;;0.50;0.50;;;20.00;99.90;;;;;;4960505;28;20054;-88
2023/08/05 08:48:24;;;;;;;0.60;0.60;;;20.10;99.90;;;;;;4980556;28;20038;-89
2023/08/05 08:50:52;;;;;;;0.50;0.50;;;20.10;99.90;;;;;;4959277;28;20056;-88
2023/08/05 08:53:20;;;;;;;0.50;0.50;;;20.30;99.90;;;;;;4961309;28;20050;-90
2023/08/05 08:55:47;;;;;;;0.50;0.50;;;20.10;99.90;;;;;;4963163;28;20178;-87
2023/08/05 08:58:13;;;;;;;0.50;0.50;;;20.50;99.90;;;;;;4963892;28;20053;-90
2023/08/05 09:00:39;;;;;;;0.50;0.50;;;20.50;99.90;;;;;;4962799;28;20035;-87
2023/08/05 09:03:06;;;;;;;0.50;0.50;;;20.30;99.90;;;;;;4975828;28;20078;-86
2023/08/05 09:05:42;;;;;;;0.50;0.50;;;20.50;99.90;;;;;;4980149;28;20038;-86
2023/08/05 09:08:08;;;;;;;0.50;0.50;;;20.10;99.90;;;;;;4964518;28;20088;-87
2023/08/05 09:10:36;;;;;;;0.50;0.50;;;20.20;99.90;;;;;;4999155;28;20058;-92
2023/08/05 09:13:04;;;;;;;0.50;0.50;;;20.80;99.90;;;;;;4963131;28;20508;-89
2023/08/05 09:15:37;;;;;;;0.50;0.50;;;21.40;99.90;;;;;;4976760;28;20074;-90
2023/08/05 09:18:04;;;;;;;0.50;0.50;;;21.50;99.90;;;;;;4981964;28;20042;-89
2023/08/05 09:20:35;;;;;;;0.50;0.50;;;21.10;99.90;;;;;;4978965;28;20046;-88
2023/08/05 09:23:02;;;;;;;0.50;0.50;;;21.50;99.90;;;;;;4963665;28;20049;-91
2023/08/05 09:25:29;;;;;;;0.40;0.40;;;21.40;99.90;;;;;;4985561;28;20472;-94
2023/08/05 09:27:56;;;;;;;0.50;0.50;;;21.30;99.90;;;;;;4963887;28;20050;-86
2023/08/05 09:30:23;;;;;;;0.50;0.50;;;21.10;99.90;;;;;;4979080;28;20057;-88
2023/08/05 09:32:49;;;;;;;0.50;0.50;;;21.40;99.90;;;;;;4979225;28;20046;-89
2023/08/05 09:35:16;;;;;;;0.50;0.50;;;21.70;99.90;;;;;;4975728;28;20035;-86
2023/08/05 09:37:54;;;;;;;0.50;0.50;;;21.00;99.90;;;;;;4974170;28;20185;-90
2023/08/05 09:40:45;;;;;;;0.50;0.50;;;21.00;99.90;;;;;;4975226;28;20054;-89
2023/08/05 09:43:14;;;;;;;0.50;0.50;;;21.30;99.90;;;;;;4963435;28;20117;-88
2023/08/05 09:45:43;;;;;;;0.50;0.50;;;21.40;99.90;;;;;;4981442;28;20122;-91
2023/08/05 09:48:10;;;;;;;0.50;0.50;;;21.30;99.90;;;;;;4959099;28;20823;-85
2023/08/05 09:50:38;;;;;;;0.50;0.50;;;21.20;99.90;;;;;;4974098;28;20101;-88
2023/08/05 09:53:10;;;;;;;0.50;0.50;;;21.10;99.90;;;;;;4959947;28;20863;-87
2023/08/05 09:55:39;;;;;;;0.50;0.50;;;20.80;99.90;;;;;;4985705;28;20058;-87
2023/08/05 09:58:07;;;;;;;0.50;0.50;;;20.90;99.90;;;;;;4977609;28;20940;-86
2023/08/05 10:00:41;;;;;;;0.50;0.50;;;21.10;99.90;;;;;;4961375;28;20109;-93
2023/08/05 10:03:13;;;;;;;0.50;0.50;;;20.80;99.90;;;;;;4965111;28;20058;-95
2023/08/05 10:05:45;;;;;;;0.50;0.50;;;21.00;99.90;;;;;;4966495;28;20045;-87
2023/08/05 10:08:15;;;;;;;0.50;0.50;;;21.50;99.90;;;;;;4968419;28;20076;-88
2023/08/05 10:10:47;;;;;;;0.50;0.50;;;21.90;99.90;;;;;;4982529;28;20141;-92
2023/08/05 10:13:20;;;;;;;0.50;0.50;;;21.80;99.90;;;;;;4965182;28;20090;-89
2023/08/05 10:16:03;;;;;;;0.43;0.43;;;22.30;99.90;;;;;;4979646;28;20860;-94
2023/08/05 10:18:48;;;;;;;0.50;0.50;;;21.70;99.90;;;;;;4964818;28;20046;-93
2023/08/05 10:21:42;;;;;;;0.50;0.50;;;21.60;99.90;;;;;;4961893;28;20057;-88
2023/08/05 10:24:53;;;;;;;0.50;0.50;;;21.20;99.90;;;;;;4982331;28;20039;-95
2023/08/05 10:27:41;;;;;;;0.50;0.50;;;20.90;99.90;;;;;;4979512;28;20053;-94
2023/08/05 10:30:13;;;;;;;0.50;0.50;;;21.00;99.90;;;;;;4983273;28;20047;-95
2023/08/05 10:32:58;;;;;;;0.60;0.60;;;21.10;99.90;;;;;;4980978;28;20046;-95
2023/08/05 10:35:49;;;;;;;0.60;0.60;;;21.10;99.90;;;;;;4979293;28;20070;-95
2023/08/05 10:38:30;;;;;;;0.50;0.50;;;20.80;99.90;;;;;;4971388;28;20043;-94
2023/08/05 10:41:00;;;;;;;0.50;0.50;;;20.40;99.90;;;;;;4963035;28;20121;-89
2023/08/05 10:43:38;;;;;;;0.50;0.50;;;21.00;99.90;;;;;;4975292;28;20559;-86
2023/08/05 10:46:07;;;;;;;0.50;0.50;;;21.50;99.90;;;;;;4961194;28;20042;-91
2023/08/05 10:48:42;;;;;;;0.50;0.50;;;22.00;99.90;;;;;;4977603;28;20042;-93
2023/08/05 10:51:10;;;;;;;0.60;0.60;;;21.80;99.90;;;;;;4966145;28;20499;-89
2023/08/05 10:53:39;;;;;;;0.60;0.60;;;21.20;99.90;;;;;;4978569;28;20058;-91
2023/08/05 10:56:11;;;;;;;0.50;0.50;;;21.10;99.90;;;;;;4975456;28;20089;-84
2023/08/05 10:58:45;;;;;;;0.50;0.50;;;21.90;99.90;;;;;;4953804;28;20038;-90
2023/08/05 11:01:11;;;;;;;0.50;0.50;;;21.90;99.90;;;;;;4976490;28;20039;-90
2023/08/05 11:03:51;;;;;;;0.50;0.50;;;22.30;99.90;;;;;;4960840;28;20053;-92
2023/08/05 11:06:41;;;;;;;0.50;0.50;;;22.20;99.90;;;;;;4977110;28;20057;-86
2023/08/05 11:09:14;;;;;;;0.50;0.50;;;21.60;99.90;;;;;;4957656;28;20073;-95
2023/08/05 11:11:39;;;;;;;0.50;0.50;;;21.10;99.90;;;;;;4959077;28;20034;-87
2023/08/05 11:14:08;;;;;;;0.50;0.50;;;20.80;99.90;;;;;;4957912;28;20421;-96
2023/08/05 11:16:46;;;;;;;0.52;0.52;;;20.60;99.90;;;;;;4961783;28;20130;-90
2023/08/05 11:19:12;;;;;;;0.60;0.60;;;20.80;99.90;;;;;;4960068;28;21622;-91
2023/08/05 11:21:45;;;;;;;0.60;0.60;;;20.80;99.90;;;;;;4961090;28;20046;-95
2023/08/05 11:24:18;;;;;;;0.60;0.60;;;20.60;99.90;;;;;;4977725;28;20164;-91
2023/08/05 11:26:47;;;;;;;0.60;0.60;;;20.70;99.90;;;;;;4960602;28;20264;-91
2023/08/05 11:29:15;;;;;;;0.60;0.60;;;20.80;99.90;;;;;;4960556;28;20105;-90
2023/08/05 11:31:51;;;;;;;0.60;0.60;;;20.90;99.90;;;;;;4958981;28;20042;-85
2023/08/05 11:34:21;;;;;;;0.50;0.50;;;21.50;99.90;;;;;;4954428;28;20192;-88
2023/08/05 11:36:55;;;;;;;0.60;0.60;;;21.50;99.90;;;;;;4976645;28;20047;-86
2023/08/05 11:39:27;;;;;;;;;;;21.20;99.90;;;;;;4977800;28;20094;-96
2023/08/05 11:41:53;;;;;;;0.60;0.60;;;21.10;99.90;;;;;;4955339;28;19972;-88
2023/08/05 11:44:19;;;;;;;0.60;0.60;;;21.20;99.90;;;;;;4958959;28;20038;-87
2023/08/05 11:46:45;;;;;;;0.60;0.60;;;21.20;99.90;;;;;;4962209;28;20054;-85
2023/08/05 11:49:13;;;;;;;0.60;0.60;;;21.20;99.90;;;;;;4977485;28;20046;-93
2023/08/05 11:51:55;;;;;;;0.60;0.60;;;21.10;99.90;;;;;;4962109;28;20088;-88
2023/08/05 11:54:37;;;;;;;0.60;0.60;;;20.50;99.90;;;;;;4959117;28;20419;-89
2023/08/05 11:57:18;;;;;;;0.60;0.60;;;20.70;99.90;;;;;;4973173;28;20696;-86
2023/08/05 11:59:46;;;;;;;0.60;0.60;;;21.00;99.90;;;;;;4964646;28;20108;-94
2023/08/05 12:02:12;;;;;;;0.60;0.60;;;20.80;99.90;;;;;;4963639;28;20173;-89
2023/08/05 12:04:43;;;;;;;0.60;0.60;;;20.90;99.90;;;;;;4978499;28;20677;-91
2023/08/05 12:07:19;;;;;;;0.60;0.60;;;20.90;99.90;;;;;;4979369;28;20046;-89
2023/08/05 12:10:02;;;;;;;0.60;0.60;;;21.10;99.90;;;;;;4984474;28;20086;-90
2023/08/05 12:12:28;;;;;;;0.57;0.57;;;21.40;99.90;;;;;;4962936;28;20081;-90
2023/08/05 12:15:10;;;;;;;0.55;0.55;;;21.80;99.90;;;;;;4975911;28;20074;-87
2023/08/05 12:17:54;;;;;;;0.50;0.50;;;21.90;99.90;;;;;;4977678;28;20253;-94
2023/08/05 12:20:22;;;;;;;0.50;0.50;;;21.70;99.90;;;;;;4956685;28;20055;-89
2023/08/05 12:22:53;;;;;;;0.50;0.50;;;21.70;99.90;;;;;;4977566;28;20074;-90
2023/08/05 12:25:22;;;;;;;0.50;0.50;;;21.90;99.90;;;;;;4982427;28;20069;-95
2023/08/05 12:27:51;;;;;;;0.50;0.50;;;21.20;99.90;;;;;;4969050;28;20129;-93
2023/08/05 12:30:23;;;;;;;0.47;0.47;;;21.00;99.90;;;;;;4968736;28;20050;-95
2023/08/05 12:33:14;;;;;;;0.50;0.50;;;21.30;99.90;;;;;;4962365;28;20544;-94
2023/08/05 12:35:40;;;;;;;0.45;0.45;;;21.20;99.90;;;;;;4968335;28;20046;-88
2023/08/05 12:38:09;;;;;;;0.50;0.50;;;21.20;99.90;;;;;;4957041;28;20523;-92
2023/08/05 12:40:35;;;;;;;0.50;0.50;;;21.40;99.90;;;;;;4976051;28;20047;-86
2023/08/05 12:43:00;;;;;;;0.50;0.50;;;21.90;99.90;;;;;;4980420;28;20070;-91
2023/08/05 12:45:26;;;;;;;0.40;0.40;;;21.90;99.90;;;;;;4964202;28;20109;-92
2023/08/05 12:47:52;;;;;;;0.50;0.50;;;21.50;99.90;;;;;;4959828;28;20038;-86
2023/08/05 12:50:18;;;;;;;0.50;0.50;;;21.40;99.90;;;;;;4979623;28;20053;-93
2023/08/05 12:52:43;;;;;;;0.50;0.50;;;21.50;99.90;;;;;;4966254;28;20078;-86
2023/08/05 12:55:09;;;;;;;0.50;0.50;;;21.20;99.90;;;;;;4963896;28;20043;-91
2023/08/05 12:57:35;;;;;;;0.50;0.50;;;21.20;99.90;;;;;;4967625;28;20046;-90
2023/08/05 13:00:01;;;;;;;0.60;0.60;;;21.00;99.90;;;;;;4964603;28;20050;-89
2023/08/05 13:02:32;;;;;;;0.52;0.52;;;20.70;99.90;;;;;;4970395;28;20105;-90
2023/08/05 13:04:58;;;;;;;0.50;0.50;;;20.30;99.90;;;;;;4965226;28;20101;-90
2023/08/05 13:07:27;;;;;;;0.50;0.50;;;20.80;99.90;;;;;;4963376;28;20073;-95